Flight Track Log - Related Links

Times and Time Zones

All times are in EDT time to prevent confusion due to time zone crossing. See the RLI717 flight status page for this flight to view local times or setup timezone preferences in your user account.

Time Position Orientation Groundspeed Altitude Reporting Facility
EDT Latitude Longitude Course Direction KTS MPH feet Rate Location/Type
Thu 12:36:18 PM 43.1833 -71.5000 143° Southeast 171 197 700  Level Boston TRACON
Thu 12:38:15 PM 43.1128 -71.4275 92° East 229 264 6,200 2,441 Climbing Boston Center
Thu 12:39:15 PM 43.1097 -71.3308 95° East 252 290 7,900 2,050 Climbing Boston Center
Thu 12:40:15 PM 43.1025 -71.2117 94° East 280 322 10,300 2,350 Climbing Boston Center
Thu 12:41:15 PM 43.0969 -71.1008 94° East 290 334 12,600 1,950 Climbing Boston Center
Thu 12:42:15 PM 43.0914 -70.9817 114° Southeast 295 339 14,200 1,650 Climbing Boston Center
Thu 12:43:15 PM 43.0567 -70.8744 185° South 304 350 15,900 1,700 Climbing Boston Center
Thu 12:44:15 PM 42.9711 -70.8850 202° Southwest 270 311 17,600 1,450 Climbing Boston Center
Thu 12:45:15 PM 42.8844 -70.9325 198° South 283 326 18,800 1,300 Climbing Boston Center
Thu 12:46:15 PM 42.7972 -70.9714 202° Southwest 310 357 20,200 1,350 Climbing Boston Center
Thu 12:47:15 PM 42.7042 -71.0217 199° South 343 395 21,500 1,350 Climbing Boston Center
Thu 12:48:15 PM 42.6108 -71.0661 205° Southwest 359 413 22,900 1,250 Climbing Boston Center
Thu 12:49:15 PM 42.5200 -71.1244 241° Southwest 364 419 24,000 1,050 Climbing Boston Center
Thu 12:50:15 PM 42.4753 -71.2353 247° West 333 383 25,000 1,200 Climbing Boston Center
Thu 12:51:15 PM 42.4389 -71.3486 243° Southwest 346 398 26,400 1,250 Climbing Boston Center
Thu 12:52:15 PM 42.3961 -71.4644 243° Southwest 351 404 27,500 1,100 Climbing Boston Center
Thu 12:53:15 PM 42.3492 -71.5889 241° Southwest 351 404 28,600 1,050 Climbing Boston Center
Thu 12:54:15 PM 42.3022 -71.7047 234° Southwest 351 404 29,600 1,200 Climbing Boston Center
Thu 12:55:15 PM 42.2444 -71.8119 234° Southwest 357 411 31,000 1,250 Climbing Boston Center
Thu 12:56:15 PM 42.1950 -71.9047 233° Southwest 357 411 32,100 1,100 Climbing Boston Center
Thu 12:57:15 PM 42.1369 -72.0089 235° Southwest 352 405 33,200 1,050 Climbing Boston Center
Thu 12:58:15 PM 42.0831 -72.1128 234° Southwest 347 399 34,200 1,200 Climbing Boston Center
Thu 12:59:15 PM 42.0272 -72.2164 233° Southwest 347 399 35,600 1,250 Climbing Boston Center
Thu 01:00:15 PM 41.9711 -72.3172 235° Southwest 347 399 36,700 1,150 Climbing Boston Center
Thu 01:01:15 PM 41.9189 -72.4178 233° Southwest 342 394 37,900 1,300 Climbing Boston Center
Thu 01:02:15 PM 41.8647 -72.5125 235° Southwest 332 382 39,300 1,050 Climbing Boston Center
Thu 01:03:15 PM 41.8147 -72.6100 234° Southwest 332 382 40,000 350 Climbing Boston Center
Thu 01:04:15 PM 41.7581 -72.7128 234° Southwest 337 388 40,000  Level Boston Center
Thu 01:05:15 PM 41.6994 -72.8211 234° Southwest 348 400 40,000  Level Boston Center
Thu 01:06:15 PM 41.6386 -72.9317 234° Southwest 361 415 40,000  Level Boston Center
Thu 01:07:15 PM 41.5778 -73.0450 235° Southwest 372 428 40,000  Level Boston Center
Thu 01:08:15 PM 41.5186 -73.1581 233° Southwest 372 428 40,000  Level Boston Center
Thu 01:09:15 PM 41.4553 -73.2711 233° Southwest 379 436 40,000  Level Boston Center
Thu 01:10:57 PM 41.3453 -73.4683 234° Southwest 392 451 40,000  Level New York Center
Thu 01:11:55 PM 41.2822 -73.5817 232° Southwest 392 451 40,000  Level New York Center
Thu 01:12:56 PM 41.2172 -73.6922 231° Southwest 392 451 40,000  Level New York Center
Thu 01:13:57 PM 41.1497 -73.8022 232° Southwest 392 451 40,000  Level New York Center
Thu 01:14:55 PM 41.0844 -73.9147 232° Southwest 387 445 40,000  Level New York Center
Thu 01:15:55 PM 41.0189 -74.0244 232° Southwest 382 440 40,000  Level New York Center
Thu 01:16:57 PM 40.9533 -74.1339 232° Southwest 382 440 40,000  Level New York Center
Thu 01:17:57 PM 40.8897 -74.2406 231° Southwest 388 447 40,000  Level New York Center
Thu 01:18:58 PM 40.8219 -74.3494 232° Southwest 382 440 40,000  Level New York Center
Thu 01:19:55 PM 40.7583 -74.4558 231° Southwest 382 440 40,000  Level New York Center
Thu 01:20:56 PM 40.6922 -74.5644 231° Southwest 387 445 40,000  Level New York Center
Thu 01:21:56 PM 40.6264 -74.6728 231° Southwest 387 445 40,000  Level New York Center
Thu 01:22:57 PM 40.5603 -74.7783 227° Southwest 387 445 40,000  Level New York Center
Thu 01:23:55 PM 40.4944 -74.8700 226° Southwest 387 445 40,000  Level New York Center
Thu 01:24:56 PM 40.4114 -74.9825 228° Southwest 392 451 40,000  Level New York Center
Thu 01:25:56 PM 40.3497 -75.0711 227° Southwest 384 442 40,000  Level New York Center
Thu 01:26:57 PM 40.2708 -75.1833 226° Southwest 384 442 40,000  Level New York Center
Thu 01:27:55 PM 40.1981 -75.2819 229° Southwest 379 436 40,000  Level New York Center
Thu 01:28:57 PM 40.1383 -75.3731 227° Southwest 379 436 40,000  Level New York Center
Thu 01:29:57 PM 40.0656 -75.4742 227° Southwest 379 436 40,000  Level New York Center
Thu 01:30:57 PM 39.9950 -75.5722 227° Southwest 379 436 40,000  Level New York Center
Thu 01:31:58 PM 39.9219 -75.6728 231° Southwest 379 436 40,000  Level New York Center
Thu 01:32:55 PM 39.8550 -75.7817 228° Southwest 385 443 40,000  Level New York Center
Thu 01:33:56 PM 39.7772 -75.8922 232° Southwest 385 443 40,000  Level New York Center
Thu 01:35:49 PM 39.6522 -76.1008 231° Southwest 380 437 40,000  Level Washington Center
Thu 01:36:50 PM 39.5869 -76.2056 229° Southwest 385 443 40,000  Level Washington Center
Thu 01:37:51 PM 39.5178 -76.3097 228° Southwest 385 443 40,000  Level Washington Center
Thu 01:38:51 PM 39.4461 -76.4139 231° Southwest 390 449 40,000  Level Washington Center
Thu 01:39:49 PM 39.3786 -76.5233 231° Southwest 390 449 40,000  Level Washington Center
Thu 01:40:50 PM 39.3111 -76.6297 230° Southwest 396 456 40,000  Level Washington Center
Thu 01:41:51 PM 39.2456 -76.7306 230° Southwest 396 456 40,000  Level Washington Center
Thu 01:42:49 PM 39.1758 -76.8392 230° Southwest 396 456 40,000  Level Washington Center
Thu 01:43:49 PM 39.1144 -76.9344 229° Southwest 383 441 40,000  Level Washington Center
Thu 01:44:50 PM 39.0464 -77.0350 222° Southwest 383 441 40,000  Level Washington Center
Thu 01:45:51 PM 38.9661 -77.1267 219° Southwest 383 441 40,000  Level Washington Center
Thu 01:46:49 PM 38.8858 -77.2103 221° Southwest 383 441 40,000  Level Washington Center
Thu 01:47:51 PM 38.8053 -77.2992 220° Southwest 383 441 40,000  Level Washington Center
Thu 01:49:51 PM 38.6358 -77.4814 221° Southwest 383 441 40,000  Level Washington Center
Thu 01:50:51 PM 38.5572 -77.5697 219° Southwest 371 427 40,000  Level Washington Center
Thu 01:51:49 PM 38.4767 -77.6522 220° Southwest 376 433 40,000  Level Washington Center
Thu 01:52:50 PM 38.3981 -77.7375 220° Southwest 376 433 40,000  Level Washington Center
Thu 01:53:51 PM 38.3194 -77.8228 220° Southwest 381 438 40,000  Level Washington Center
Thu 01:54:48 PM 38.2383 -77.9100 220° Southwest 381 438 40,000  Level Washington Center
Thu 01:55:49 PM 38.1597 -77.9950 220° Southwest 381 438 40,000  Level Washington Center
Thu 01:56:49 PM 38.0808 -78.0794 221° Southwest 386 444 40,000  Level Washington Center
Thu 01:57:50 PM 38.0125 -78.1561 228° Southwest 380 437 40,000  Level Washington Center
Thu 01:58:50 PM 37.9456 -78.2514 230° Southwest 367 422 40,000  Level Washington Center
Thu 01:59:51 PM 37.8786 -78.3542 228° Southwest 373 429 40,000  Level Washington Center
Thu 02:00:51 PM 37.8119 -78.4492 230° Southwest 373 429 40,000 -407 Level Washington Center
Thu 02:01:49 PM 37.7361 -78.5617 227° Southwest 373 429 39,200 -1,008 Descending Washington Center
Thu 02:02:50 PM 37.6669 -78.6561 228° Southwest 373 429 38,000 -1,180 Descending Washington Center
Thu 02:03:51 PM 37.5978 -78.7528 229° Southwest 373 429 36,800 -1,412 Descending Washington Center
Thu 02:04:49 PM 37.5283 -78.8522 228° Southwest 373 429 35,200 -1,678 Descending Washington Center
Thu 02:05:49 PM 37.4653 -78.9411 228° Southwest 378 435 33,500 -1,686 Descending Washington Center
Thu 02:06:50 PM 37.3981 -79.0347 227° Southwest 373 429 31,800 -1,623 Descending Washington Center
Thu 02:07:51 PM 37.3308 -79.1258 229° Southwest 368 423 30,200 -1,613 Descending Washington Center
Thu 02:08:49 PM 37.2631 -79.2244 229° Southwest 373 429 28,600 -1,373 Descending Washington Center
Thu 02:09:49 PM 37.1933 -79.3256 230° Southwest 373 429 27,500 -1,100 Descending Washington Center
Thu 02:10:49 PM 37.1231 -79.4289 231° Southwest 379 436 26,400 -1,190 Descending Washington Center
Thu 02:11:50 PM 37.0486 -79.5422 230° Southwest 389 448 25,100 -1,140 Descending Washington Center
Thu 02:12:50 PM 36.9806 -79.6428 229° Southwest 389 448 24,100 -545 Descending Washington Center
Thu 02:13:51 PM 36.9103 -79.7431 229° Southwest 389 448 24,000 -31 Descending Washington Center
Thu 02:16:04 PM 36.7619 -79.9525 225° Southwest 357 411 24,000  Level Atlanta Center
Thu 02:17:04 PM 36.6817 -80.0525 222° Southwest 368 423 24,000  Level Atlanta Center
Thu 02:18:04 PM 36.6053 -80.1389 231° Southwest 373 429 24,000  Level Atlanta Center
Thu 02:19:04 PM 36.5417 -80.2378 233° Southwest 373 429 24,000 -650 Level Atlanta Center
Thu 02:20:04 PM 36.4781 -80.3439 233° Southwest 378 435 22,700 -1,450 Descending Atlanta Center
Thu 02:21:04 PM 36.4244 -80.4317 233° Southwest 378 435 21,100 -1,550 Descending Atlanta Center
Thu 02:22:04 PM 36.3647 -80.5297 232° Southwest 372 428 19,600 -1,550 Descending Atlanta Center
Thu 02:23:04 PM 36.2989 -80.6356 227° Southwest 366 421 18,000 -1,450 Descending Atlanta Center
Thu 02:24:04 PM 36.2386 -80.7153 225° Southwest 341 392 16,700 -1,400 Descending Atlanta Center
Thu 02:25:04 PM 36.1781 -80.7900 208° Southwest 326 375 15,200 -1,900 Descending Atlanta Center
Thu 02:26:04 PM 36.1000 -80.8419 209° Southwest 316 364 12,900 -2,208 Descending Atlanta Center
Thu 02:26:50 PM 36.0406 -80.8828 208° Southwest 314 361 11,300 -1,752 Descending Atlanta Center
Thu 02:27:57 PM 35.9689 -80.9292 229° Southwest 279 321 9,600 -1,500 Descending Atlanta Center
Thu 02:28:46 PM 35.9286 -80.9872 241° Southwest 272 313 8,400 -1,552 Descending Atlanta Center
Thu 02:29:53 PM 35.8869 -81.0783 242° Southwest 269 310 6,600 -1,435 Descending Atlanta Center
Thu 02:31:04 PM 35.8494 -81.1669 247° West 277 319 5,100 -1,377 Descending Atlanta Center
Thu 02:31:55 PM 35.8222 -81.2472 231° Southwest 249 287 3,800 -1,000 Descending Atlanta Center
Thu 02:33:04 PM 35.7878 -81.2994 239° Southwest 228 262 3,100 -667 Descending Atlanta Center
Thu 02:33:52 PM 35.7678 -81.3411 235° Southwest 161 185 2,500 -850 Descending Atlanta Center
Thu 02:35:04 PM 35.7458 -81.3803 235° Southwest 160 184 1,400 -917 Descending Atlanta Center

Login

Don't have an account? Register now (free) for customized features, flight alerts, and more!